Wind Cave National Park, SD

9:55 PM MDT on September 19, 2014 (GMT -0600)
RAWS CUSTER SD US | Change Station
CLOSE
Current Station
Personal Weather Station
Location: Custer, SD
Elevation: 5820 ft
Nearby Weather Stations

Elev 5820 ft 43.78 °N, 103.64 °W | Updated 31 minutes ago

Clear
Clear
60 °F
Feels Like 60 °F
N
3
Wind Variable Wind from NNE
Gusts 6.0 mph

Today
High -- | Low -- °F
--% Chance of Precip.
Yesterday
High -- | Low -- °F
Precip. -- in
6:38 AM 6:57 PM
Waning Crescent, 15% visible
Pressure 29.90 in
Visibility 10.0 miles
Clouds Clear
Dew Point 45 °F
Humidity 58%
Rainfall 0.00 in
Snow Depth 0 in
UV 0 out of 12
Pollen 6.10 out of 12
Air Quality Not available.
Flu Activity Not available.
METAR KCUT 200253Z AUTO 03004KT 10SM CLR 16/08 A3006 RMK AO2 SLP124 T01560078 53016

More Conditions Fewer Conditions

Pressure 29.90 in
Visibility 10.0 miles
Clouds Clear
Dew Point 45 °F
Humidity 58%
Rainfall 0.00 in
Snow Depth 0 in
UV 0 out of 12
Pollen 6.10 out of 12
Air Quality Not available.
Flu Activity Not available.
METAR KCUT 200253Z AUTO 03004KT 10SM CLR 16/08 A3006 RMK AO2 SLP124 T01560078 53016

More Conditions Fewer Conditions

10-Day Weather Forecast

Almanac

Astronomy

Sep. 19, 2014 Rise Set
Actual Time 6:38 AM MDT 6:57 PM MDT
Civil Twilight 6:09 AM MDT 7:26 PM MDT
Nautical Twilight 5:35 AM MDT 7:59 PM MDT
Astronomical Twilight 5:01 AM MDT 8:34 PM MDT
Moon 2:19 AM MDT (9/19) 4:33 PM MDT (9/19)
Length of Visible Light 13h 16m
Length of Day
12h 18m
Tomorrow will be 2m 59s shorter.
Waning Crescent, 15% of the Moon is Illuminated
Today
Waning Crescent
Sep 24
New
Oct 1
First Quarter
Oct 8
Full
Oct 15
Last Quarter

Today's Extremes

State Highs State Lows

Community

WunderPhotos

Upload Photos

1,754,777 photos uploaded!

WunderBlogs® & News

Nearby

Snow Depth

Station Depth Elevation
Blind Park 0 in 6890 ft

Earthquake Activity

City Distance Mag. Time & Date
No recent earthquake activity has been reported nearby.
Minimum magnitude displayed is 2.5.

Coastal Water Temperatures

Place Temperature
No Stations Reporting

Nearby Weather Stations